Momignies, Belgium
Current Conditions -  °F | °C
As of 7:25 PM on Sunday 25 Jan 2015 (Local Time) from EBFS Reporting Station
Broken Clouds Broken Clouds  
Wind Chill: 31°   Ceiling: 5000
Heat Index: 36°   Visibility: 5mi
Dew Point: 34°   Wind: 6mph
Humidity: 93%   Direction: 200°SSW
Pressure: 30.39"   Gusts: NA
Location:  50.03°N, 4.17°E
Report Text: EBFS 251825Z 20005KT 8000 BKN050 02/01 Q1029 BLU
Loading
Personal Weather Stations






























Interactive Weather Map New forecast layout! Learn more

10-Day Weather Forecast

Advertisements
Track Severe Weather on mobile